createdAt,value
2022-07-29T00:01:05.634Z,0.90
2022-07-29T00:03:32.662Z,0.80
2022-07-29T00:06:00.824Z,0.68
2022-07-29T00:08:28.068Z,0.60
2022-07-29T00:10:55.079Z,0.75
2022-07-29T00:13:32.108Z,0.55
2022-07-29T00:16:03.587Z,0.70
2022-07-29T00:18:32.920Z,0.90
2022-07-29T00:21:00.341Z,1.20
2022-07-29T00:23:27.380Z,1.10
2022-07-29T00:25:54.504Z,0.60
2022-07-29T00:28:21.493Z,0.90
2022-07-29T00:30:48.568Z,0.80
2022-07-29T00:33:15.649Z,0.77
2022-07-29T00:35:45.577Z,0.80
2022-07-29T00:38:15.523Z,0.60
2022-07-29T00:40:44.004Z,1.30
2022-07-29T00:43:14.093Z,0.63
2022-07-29T00:45:44.624Z,0.68
2022-07-29T00:48:11.851Z,0.85
2022-07-29T00:50:39.680Z,0.80
2022-07-29T00:53:12.940Z,1.00
2022-07-29T00:55:40.133Z,0.90
2022-07-29T00:58:08.106Z,0.60
2022-07-29T01:00:35.254Z,0.80
2022-07-29T01:03:02.434Z,0.90
2022-07-29T01:05:50.682Z,0.85
2022-07-29T01:08:21.227Z,0.80
2022-07-29T01:10:50.302Z,0.60
2022-07-29T01:13:18.728Z,0.63
2022-07-29T01:15:56.363Z,1.08
2022-07-29T01:18:40.569Z,0.63
2022-07-29T01:21:55.875Z,0.82
2022-07-29T01:24:51.495Z,0.75
2022-07-29T01:28:00.589Z,0.98
2022-07-29T01:30:30.845Z,0.77
2022-07-29T01:33:36.495Z,1.00
2022-07-29T01:36:17.578Z,0.90
2022-07-29T01:38:58.919Z,1.20
2022-07-29T01:41:30.579Z,0.80
2022-07-29T01:44:10.682Z,0.83
2022-07-29T01:46:45.586Z,0.90
2022-07-29T01:49:21.183Z,0.85
2022-07-29T01:51:55.606Z,1.10
2022-07-29T01:54:46.992Z,0.85
2022-07-29T01:57:21.030Z,1.05
2022-07-29T01:59:51.271Z,1.10
2022-07-29T02:02:21.812Z,0.90
2022-07-29T02:04:51.687Z,1.45
2022-07-29T02:07:22.920Z,0.93
2022-07-29T02:09:54.713Z,0.80
2022-07-29T02:12:25.084Z,0.85
2022-07-29T02:14:55.516Z,1.15
2022-07-29T02:17:50.038Z,0.93
2022-07-29T02:20:18.139Z,0.70
2022-07-29T02:22:48.232Z,1.08
2022-07-29T02:25:17.475Z,1.42
2022-07-29T02:27:46.572Z,1.65
2022-07-29T02:30:14.447Z,1.30
2022-07-29T02:32:44.494Z,1.45
2022-07-29T02:38:11.464Z,1.13
2022-07-29T02:40:43.057Z,1.25
2022-07-29T02:43:12.061Z,1.00
2022-07-29T02:45:39.930Z,1.60
2022-07-29T02:48:16.139Z,1.13
2022-07-29T02:50:55.593Z,1.17
2022-07-29T02:53:27.699Z,0.73
2022-07-29T02:56:09.039Z,1.20
2022-07-29T02:58:49.929Z,1.20
2022-07-29T03:01:24.997Z,0.73
2022-07-29T03:03:55.084Z,0.68
2022-07-29T03:06:28.105Z,0.80
2022-07-29T03:11:46.091Z,0.75
2022-07-29T03:14:21.519Z,0.70
2022-07-29T03:16:51.998Z,0.70
2022-07-29T03:19:21.414Z,0.98
2022-07-29T03:21:48.897Z,0.77
2022-07-29T03:24:35.304Z,0.90
2022-07-29T03:27:04.609Z,0.80
2022-07-29T03:29:33.021Z,0.70
2022-07-29T03:32:07.141Z,0.63
2022-07-29T03:34:35.493Z,0.60
2022-07-29T03:37:02.698Z,0.60
2022-07-29T03:39:39.241Z,0.50
2022-07-29T03:42:11.539Z,0.50
2022-07-29T03:44:44.041Z,0.80
2022-07-29T03:49:43.590Z,0.70
2022-07-29T03:52:11.306Z,1.20
2022-07-29T03:54:38.541Z,0.60
2022-07-29T03:57:08.926Z,0.68
2022-07-29T03:59:37.077Z,1.08
2022-07-29T04:02:06.550Z,0.80
2022-07-29T04:04:37.286Z,0.57
2022-07-29T04:07:08.400Z,0.85
2022-07-29T04:09:35.588Z,0.93
2022-07-29T04:12:04.346Z,1.00
2022-07-29T04:14:35.915Z,1.00
2022-07-29T04:17:05.524Z,0.93
2022-07-29T04:19:33.521Z,1.10
2022-07-29T04:22:02.111Z,1.42
2022-07-29T04:24:29.733Z,1.30
2022-07-29T04:26:57.122Z,1.35
2022-07-29T04:29:24.332Z,1.15
2022-07-29T04:31:51.680Z,0.80
2022-07-29T04:34:19.829Z,1.45
2022-07-29T04:36:47.279Z,1.13
2022-07-29T04:39:18.042Z,1.30
2022-07-29T04:41:48.345Z,1.38
2022-07-29T04:44:15.822Z,1.90
2022-07-29T04:46:44.623Z,1.80
2022-07-29T04:49:11.975Z,2.17
2022-07-29T04:51:39.271Z,1.60
2022-07-29T04:54:07.262Z,1.70
2022-07-29T04:56:34.421Z,1.10
2022-07-29T04:59:01.682Z,1.02
2022-07-29T05:01:28.907Z,0.73
2022-07-29T05:04:00.321Z,0.90
2022-07-29T05:06:28.014Z,0.95
2022-07-29T05:08:55.214Z,1.08
2022-07-29T05:11:30.504Z,0.88
2022-07-29T05:13:58.022Z,1.00
2022-07-29T05:16:28.362Z,0.63
2022-07-29T05:18:55.540Z,1.00
2022-07-29T05:21:22.816Z,1.15
2022-07-29T05:23:50.074Z,1.30
2022-07-29T05:26:17.377Z,1.17
2022-07-29T05:28:44.608Z,1.20
2022-07-29T05:31:11.919Z,0.98
2022-07-29T05:33:39.205Z,1.05
2022-07-29T05:36:09.305Z,1.20
2022-07-29T05:38:37.523Z,1.45
2022-07-29T05:41:06.313Z,0.90
2022-07-29T05:43:34.208Z,1.05
2022-07-29T05:46:01.490Z,1.40
2022-07-29T05:48:28.931Z,1.00
2022-07-29T05:50:56.739Z,1.05
2022-07-29T05:53:23.999Z,1.40
2022-07-29T05:55:52.975Z,1.20
2022-07-29T05:58:20.641Z,1.33
2022-07-29T06:00:48.050Z,1.20
2022-07-29T06:03:15.394Z,1.42
2022-07-29T06:05:42.703Z,1.50
2022-07-29T06:08:09.893Z,1.30
2022-07-29T06:10:37.409Z,1.10
2022-07-29T06:13:04.665Z,1.10
2022-07-29T06:15:32.154Z,1.20
2022-07-29T06:18:01.283Z,1.23
2022-07-29T06:20:33.033Z,1.63
2022-07-29T06:23:01.225Z,1.23
2022-07-29T06:25:33.409Z,1.60
2022-07-29T06:28:00.618Z,0.93
2022-07-29T06:30:28.145Z,1.33
2022-07-29T06:32:56.007Z,1.20
2022-07-29T06:35:42.026Z,1.23
2022-07-29T06:38:30.153Z,1.30
2022-07-29T06:41:07.062Z,0.80
2022-07-29T06:43:42.692Z,1.40
2022-07-29T06:46:21.177Z,1.42
2022-07-29T06:48:49.153Z,1.30
2022-07-29T06:51:22.575Z,1.30
2022-07-29T06:54:00.305Z,1.73
2022-07-29T06:56:39.478Z,1.15
2022-07-29T06:59:12.814Z,1.58
2022-07-29T07:01:43.971Z,1.35
2022-07-29T07:04:12.989Z,1.40
2022-07-29T07:06:40.975Z,1.50
2022-07-29T07:09:08.398Z,1.15
2022-07-29T07:11:35.667Z,1.48
2022-07-29T07:14:04.461Z,1.20
2022-07-29T07:16:33.052Z,1.10
2022-07-29T07:19:01.122Z,1.50
2022-07-29T07:21:30.216Z,1.00
2022-07-29T07:23:58.628Z,1.15
2022-07-29T07:26:26.426Z,1.08
2022-07-29T07:28:53.722Z,1.20
2022-07-29T07:31:21.208Z,1.10
2022-07-29T07:33:48.516Z,1.10
2022-07-29T07:36:15.782Z,1.30
2022-07-29T07:38:42.970Z,1.50
2022-07-29T07:41:10.163Z,1.17
2022-07-29T07:43:37.453Z,1.05
2022-07-29T07:46:04.849Z,1.00
2022-07-29T07:48:32.065Z,1.45
2022-07-29T07:50:59.286Z,0.90
2022-07-29T07:53:26.447Z,1.20
2022-07-29T07:56:09.845Z,1.65
2022-07-29T07:58:39.879Z,1.50
2022-07-29T08:01:07.552Z,1.13
2022-07-29T08:03:35.264Z,1.33
2022-07-29T08:06:03.878Z,1.25
2022-07-29T08:08:31.177Z,1.42
2022-07-29T08:10:58.494Z,1.13
2022-07-29T08:13:29.357Z,1.52
2022-07-29T08:16:12.188Z,1.67
2022-07-29T08:18:42.236Z,1.80
2022-07-29T08:21:09.578Z,1.80
2022-07-29T08:23:46.484Z,1.95
2022-07-29T08:26:16.578Z,1.42
2022-07-29T08:28:47.164Z,2.03
2022-07-29T08:31:15.395Z,1.52
2022-07-29T08:33:43.257Z,1.35
2022-07-29T08:36:10.804Z,2.25
2022-07-29T08:38:38.104Z,1.00
2022-07-29T08:41:05.642Z,1.60
2022-07-29T08:43:33.276Z,1.25
2022-07-29T08:46:01.657Z,1.80
2022-07-29T08:48:32.558Z,1.25
2022-07-29T08:51:01.758Z,1.73
2022-07-29T08:53:31.500Z,1.35
2022-07-29T08:55:59.842Z,1.52
2022-07-29T08:58:32.331Z,1.48
2022-07-29T09:01:04.947Z,2.15
2022-07-29T09:03:38.388Z,1.55
2022-07-29T09:06:06.026Z,1.52
2022-07-29T09:08:34.283Z,1.77
2022-07-29T09:11:05.634Z,1.52
2022-07-29T09:13:32.975Z,1.50
2022-07-29T09:16:02.495Z,1.50
2022-07-29T09:18:46.931Z,1.70
2022-07-29T09:21:37.109Z,1.58
2022-07-29T09:24:12.039Z,1.40
2022-07-29T09:26:43.332Z,1.50
2022-07-29T09:29:23.413Z,1.35
2022-07-29T09:31:54.008Z,1.85
2022-07-29T09:34:32.390Z,1.70
2022-07-29T09:36:59.559Z,1.13
2022-07-29T09:39:35.281Z,1.27
2022-07-29T09:42:06.634Z,1.48
2022-07-29T09:44:51.060Z,1.95
2022-07-29T09:47:22.786Z,1.65
2022-07-29T09:50:00.416Z,1.90
2022-07-29T09:52:31.197Z,1.35
2022-07-29T09:55:17.852Z,1.92
2022-07-29T09:57:47.667Z,1.50
2022-07-29T10:00:21.125Z,1.13
2022-07-29T10:02:49.453Z,1.35
2022-07-29T10:05:26.495Z,1.42
2022-07-29T10:07:58.635Z,1.48
2022-07-29T10:10:31.170Z,1.80
2022-07-29T10:13:07.815Z,1.88
2022-07-29T10:15:44.819Z,1.27
2022-07-29T10:18:14.396Z,1.30
2022-07-29T10:20:42.700Z,1.92
2022-07-29T10:23:11.030Z,1.63
2022-07-29T10:25:38.269Z,1.73
2022-07-29T10:28:07.199Z,1.65
2022-07-29T10:30:35.188Z,2.08
2022-07-29T10:33:38.830Z,1.67
2022-07-29T10:36:16.767Z,2.00
2022-07-29T10:39:56.247Z,1.50
2022-07-29T10:42:34.075Z,1.40
2022-07-29T10:45:04.935Z,1.17
2022-07-29T10:47:32.625Z,1.45
2022-07-29T10:50:07.661Z,1.33
2022-07-29T10:53:00.374Z,1.42
2022-07-29T10:55:37.807Z,1.30
2022-07-29T10:58:18.007Z,1.35
2022-07-29T11:00:52.164Z,1.52
2022-07-29T11:03:53.579Z,1.58
2022-07-29T11:09:25.749Z,1.30
2022-07-29T11:12:38.727Z,1.40
2022-07-29T11:15:18.508Z,1.60
2022-07-29T11:18:15.080Z,2.45
2022-07-29T11:20:47.817Z,2.83
2022-07-29T11:26:23.127Z,1.90
2022-07-29T11:29:04.679Z,2.60
2022-07-29T11:31:44.537Z,2.22
2022-07-29T11:34:34.856Z,2.13
2022-07-29T11:37:10.796Z,2.33
2022-07-29T11:39:47.151Z,2.38
2022-07-29T11:42:32.313Z,2.60
2022-07-29T11:45:41.441Z,2.70
2022-07-29T11:48:31.322Z,2.72
2022-07-29T11:51:00.977Z,2.40
2022-07-29T11:53:33.034Z,2.95
2022-07-29T11:56:02.449Z,2.58
2022-07-29T11:58:30.921Z,2.53
2022-07-29T12:01:04.550Z,2.20
2022-07-29T12:03:35.808Z,2.50
2022-07-29T12:06:13.716Z,1.83
2022-07-29T12:08:45.041Z,1.80
2022-07-29T12:11:22.606Z,2.83
2022-07-29T12:13:52.960Z,2.70
2022-07-29T12:16:25.584Z,2.13
2022-07-29T12:19:06.185Z,2.90
2022-07-29T12:21:53.656Z,3.00
2022-07-29T12:24:26.506Z,2.80
2022-07-29T12:27:00.278Z,2.95
2022-07-29T12:29:34.831Z,3.67
2022-07-29T12:32:14.211Z,2.40
2022-07-29T12:34:42.615Z,2.65
2022-07-29T12:37:11.353Z,2.67
2022-07-29T12:39:39.111Z,2.63
2022-07-29T12:42:18.368Z,2.35
2022-07-29T12:44:51.448Z,1.75
2022-07-29T12:47:20.733Z,2.53
2022-07-29T12:49:49.532Z,2.10
2022-07-29T12:52:31.013Z,1.80
2022-07-29T12:54:59.301Z,2.03
2022-07-29T12:57:27.608Z,1.95
2022-07-29T13:00:05.456Z,1.60
2022-07-29T13:02:32.955Z,1.50
2022-07-29T13:05:02.488Z,1.80
2022-07-29T13:07:54.094Z,1.58
2022-07-29T13:10:24.463Z,1.70
2022-07-29T13:13:09.161Z,1.58
2022-07-29T13:15:39.232Z,2.05
2022-07-29T13:18:28.077Z,2.10
2022-07-29T13:20:55.742Z,1.67
2022-07-29T13:23:23.264Z,1.63
2022-07-29T13:25:50.654Z,1.98
2022-07-29T13:28:18.521Z,1.67
2022-07-29T13:30:45.884Z,1.90
2022-07-29T13:33:13.175Z,1.88
2022-07-29T13:35:40.398Z,1.20
2022-07-29T13:38:11.112Z,1.63
2022-07-29T13:40:38.398Z,1.48
2022-07-29T13:43:05.716Z,1.75
2022-07-29T13:45:32.838Z,1.55
2022-07-29T13:48:00.107Z,1.48
2022-07-29T13:50:27.312Z,2.00
2022-07-29T13:52:54.561Z,1.75
2022-07-29T13:55:22.225Z,1.63
2022-07-29T13:57:49.472Z,1.20
2022-07-29T14:00:17.467Z,1.27
2022-07-29T14:02:44.709Z,1.17
2022-07-29T14:05:14.847Z,1.33
2022-07-29T14:07:42.037Z,1.40
2022-07-29T14:10:10.255Z,1.20
2022-07-29T14:12:37.993Z,1.10
2022-07-29T14:15:06.025Z,1.40
2022-07-29T14:17:33.186Z,1.75
2022-07-29T14:20:00.504Z,1.20
2022-07-29T14:22:27.604Z,0.90
2022-07-29T14:24:54.929Z,1.33
2022-07-29T14:27:37.630Z,1.60
2022-07-29T14:30:08.072Z,2.20
2022-07-29T14:32:35.402Z,1.23
2022-07-29T14:35:02.670Z,2.15
2022-07-29T14:37:39.903Z,1.40
2022-07-29T14:40:10.297Z,1.80
2022-07-29T14:42:38.746Z,0.95
2022-07-29T14:45:09.076Z,1.02
2022-07-29T14:47:36.475Z,1.60
2022-07-29T14:50:06.035Z,1.25
2022-07-29T14:52:33.437Z,1.30
2022-07-29T14:55:00.925Z,1.42
2022-07-29T14:57:28.325Z,1.10
2022-07-29T14:59:55.734Z,1.20
2022-07-29T15:02:28.135Z,1.15
2022-07-29T15:05:03.241Z,1.00
2022-07-29T15:07:30.474Z,1.25
2022-07-29T15:10:00.918Z,0.85
2022-07-29T15:12:28.816Z,1.25
2022-07-29T15:14:56.157Z,1.10
2022-07-29T15:17:23.562Z,1.15
2022-07-29T15:19:50.864Z,1.10
2022-07-29T15:22:19.335Z,1.27
2022-07-29T15:24:46.573Z,1.17
2022-07-29T15:27:15.176Z,1.80
2022-07-29T15:29:43.994Z,2.08
2022-07-29T15:32:12.463Z,1.55
2022-07-29T15:34:40.288Z,4.10
2022-07-29T15:37:07.695Z,2.28
2022-07-29T15:39:34.890Z,1.13
2022-07-29T15:42:03.675Z,1.77
2022-07-29T15:44:30.851Z,1.88
2022-07-29T15:47:04.058Z,1.40
2022-07-29T15:49:47.038Z,1.30
2022-07-29T15:52:26.052Z,1.30
2022-07-29T15:54:56.057Z,1.45
2022-07-29T15:57:24.871Z,1.00
2022-07-29T15:59:52.511Z,1.40
2022-07-29T16:02:19.825Z,2.08
2022-07-29T16:04:47.417Z,1.83
2022-07-29T16:07:23.516Z,1.70
2022-07-29T16:09:53.513Z,1.20
2022-07-29T16:12:21.363Z,0.88
2022-07-29T16:14:51.061Z,1.10
2022-07-29T16:17:18.917Z,1.15
2022-07-29T16:19:46.839Z,1.42
2022-07-29T16:22:14.621Z,1.45
2022-07-29T16:24:42.254Z,1.42
2022-07-29T16:27:09.787Z,1.40
2022-07-29T16:29:37.498Z,1.20
2022-07-29T16:32:06.403Z,1.20
2022-07-29T16:34:33.924Z,0.93
2022-07-29T16:37:01.362Z,1.10
2022-07-29T16:39:28.619Z,1.08
2022-07-29T16:41:59.879Z,1.27
2022-07-29T16:46:58.881Z,1.10
2022-07-29T16:49:27.785Z,0.98
2022-07-29T16:51:55.134Z,1.58
2022-07-29T16:54:22.399Z,1.23
2022-07-29T16:56:49.728Z,1.38
2022-07-29T16:59:17.011Z,0.90
2022-07-29T17:01:44.449Z,1.05
2022-07-29T17:04:16.903Z,1.00
